createdAt,value
2019-03-13T00:00:12.647Z,20.57
2019-03-13T00:01:12.616Z,20.54
2019-03-13T00:02:12.634Z,20.55
2019-03-13T00:03:12.597Z,20.57
2019-03-13T00:04:12.588Z,20.51
2019-03-13T00:05:12.575Z,20.54
2019-03-13T00:06:12.562Z,20.58
2019-03-13T00:07:12.565Z,20.54
2019-03-13T00:08:12.553Z,20.58
2019-03-13T00:09:12.530Z,20.55
2019-03-13T00:10:12.519Z,20.50
2019-03-13T00:11:12.526Z,20.54
2019-03-13T00:12:12.505Z,20.54
2019-03-13T00:13:12.517Z,20.57
2019-03-13T00:14:13.233Z,20.61
2019-03-13T00:15:12.464Z,20.54
2019-03-13T00:16:13.231Z,20.54
2019-03-13T00:17:12.445Z,20.55
2019-03-13T00:18:12.460Z,20.57
2019-03-13T00:19:13.227Z,20.57
2019-03-13T00:20:13.227Z,20.55
2019-03-13T00:21:13.229Z,20.54
2019-03-13T00:22:12.385Z,20.59
2019-03-13T00:23:12.400Z,20.57
2019-03-13T00:24:12.369Z,20.57
2019-03-13T00:25:12.353Z,20.57
2019-03-13T00:26:13.238Z,20.43
2019-03-13T00:27:12.379Z,20.57
2019-03-13T00:28:12.380Z,20.55
2019-03-13T00:29:12.314Z,20.55
2019-03-13T00:30:13.245Z,20.55
2019-03-13T00:31:12.320Z,20.58
2019-03-13T00:32:12.277Z,20.54
2019-03-13T00:33:12.750Z,20.57
2019-03-13T00:34:12.256Z,20.52
2019-03-13T00:35:12.246Z,20.52
2019-03-13T00:36:12.234Z,20.57
2019-03-13T00:37:12.222Z,20.57
2019-03-13T00:38:12.224Z,20.52
2019-03-13T00:39:12.206Z,20.54
2019-03-13T00:40:12.733Z,20.52
2019-03-13T00:41:12.731Z,20.54
2019-03-13T00:42:12.168Z,20.57
2019-03-13T00:43:12.170Z,20.59
2019-03-13T00:44:12.144Z,20.57
2019-03-13T00:45:12.737Z,20.54
2019-03-13T00:46:12.124Z,20.52
2019-03-13T00:47:12.112Z,20.54
2019-03-13T00:48:12.114Z,20.52
2019-03-13T00:49:12.091Z,20.55
2019-03-13T00:50:12.078Z,20.57
2019-03-13T00:51:12.071Z,20.58
2019-03-13T00:52:12.061Z,20.54
2019-03-13T00:53:12.075Z,20.55
2019-03-13T00:54:12.045Z,20.55
2019-03-13T00:55:12.023Z,20.55
2019-03-13T00:56:12.749Z,20.61
2019-03-13T00:57:11.998Z,20.57
2019-03-13T00:58:11.988Z,20.55
2019-03-13T00:59:11.996Z,20.57
2019-03-13T01:00:12.731Z,20.52
2019-03-13T01:01:11.954Z,20.57
2019-03-13T01:02:11.950Z,20.59
2019-03-13T01:03:12.730Z,20.57
2019-03-13T01:04:11.946Z,20.59
2019-03-13T01:05:11.911Z,20.55
2019-03-13T01:06:12.731Z,20.54
2019-03-13T01:07:12.732Z,20.51
2019-03-13T01:08:11.893Z,20.57
2019-03-13T01:09:11.907Z,20.57
2019-03-13T01:10:11.857Z,20.55
2019-03-13T01:11:11.845Z,20.54
2019-03-13T01:12:11.841Z,20.57
2019-03-13T01:13:11.831Z,20.51
2019-03-13T01:14:11.840Z,20.54
2019-03-13T01:15:12.735Z,20.58
2019-03-13T01:16:11.791Z,20.55
2019-03-13T01:17:11.777Z,20.51
2019-03-13T01:18:12.736Z,20.52
2019-03-13T01:19:11.781Z,20.50
2019-03-13T01:20:11.771Z,20.55
2019-03-13T01:21:11.736Z,20.54
2019-03-13T01:22:11.725Z,20.54
2019-03-13T01:23:12.232Z,20.54
2019-03-13T01:24:11.726Z,20.52
2019-03-13T01:25:11.688Z,20.51
2019-03-13T01:26:11.678Z,20.55
2019-03-13T01:27:11.671Z,20.55
2019-03-13T01:28:11.666Z,20.55
2019-03-13T01:29:11.757Z,20.51
2019-03-13T01:30:11.640Z,20.52
2019-03-13T01:31:11.620Z,20.47
2019-03-13T01:32:11.613Z,20.59
2019-03-13T01:33:11.604Z,20.48
2019-03-13T01:34:11.593Z,20.48
2019-03-13T01:35:11.595Z,20.51
2019-03-13T01:36:11.571Z,20.41
2019-03-13T01:37:11.558Z,20.52
2019-03-13T01:38:11.547Z,20.54
2019-03-13T01:39:11.537Z,20.50
2019-03-13T01:40:11.534Z,20.51
2019-03-13T01:41:11.514Z,20.51
2019-03-13T01:42:11.504Z,20.51
2019-03-13T01:43:11.492Z,20.50
2019-03-13T01:44:12.245Z,20.43
2019-03-13T01:45:11.488Z,20.42
2019-03-13T01:46:11.464Z,20.50
2019-03-13T01:47:11.446Z,20.47
2019-03-13T01:48:11.457Z,20.39
2019-03-13T01:49:12.232Z,20.47
2019-03-13T01:50:11.422Z,20.43
2019-03-13T01:51:11.403Z,20.47
2019-03-13T01:52:11.394Z,20.43
2019-03-13T01:53:11.385Z,20.51
2019-03-13T01:54:11.369Z,20.51
2019-03-13T01:55:11.757Z,20.41
2019-03-13T01:56:11.348Z,20.50
2019-03-13T01:57:12.233Z,20.51
2019-03-13T01:58:11.329Z,20.48
2019-03-13T01:59:11.333Z,20.42
2019-03-13T02:00:11.326Z,20.48
2019-03-13T02:01:11.294Z,20.48
2019-03-13T02:02:11.283Z,20.50
2019-03-13T02:03:12.263Z,20.47
2019-03-13T02:04:11.270Z,20.48
2019-03-13T02:05:11.270Z,20.47
2019-03-13T02:06:11.246Z,20.51
2019-03-13T02:07:11.226Z,20.41
2019-03-13T02:08:11.211Z,20.47
2019-03-13T02:09:11.750Z,20.43
2019-03-13T02:10:11.196Z,20.43
2019-03-13T02:11:11.246Z,20.42
2019-03-13T02:12:11.173Z,20.52
2019-03-13T02:13:11.161Z,20.43
2019-03-13T02:14:11.165Z,20.42
2019-03-13T02:15:11.140Z,20.42
2019-03-13T02:16:11.136Z,20.41
2019-03-13T02:17:11.135Z,20.36
2019-03-13T02:18:11.103Z,20.39
2019-03-13T02:19:11.751Z,20.42
2019-03-13T02:20:11.086Z,20.43
2019-03-13T02:21:11.256Z,20.50
2019-03-13T02:22:11.063Z,20.51
2019-03-13T02:23:11.049Z,20.38
2019-03-13T02:24:11.047Z,20.41
2019-03-13T02:25:11.026Z,20.35
2019-03-13T02:26:11.025Z,20.42
2019-03-13T02:27:11.743Z,20.35
2019-03-13T02:28:10.998Z,20.38
2019-03-13T02:29:11.740Z,20.41
2019-03-13T02:30:11.752Z,20.39
2019-03-13T02:31:11.270Z,20.41
2019-03-13T02:32:11.746Z,20.47
2019-03-13T02:33:10.947Z,20.42
2019-03-13T02:34:10.946Z,20.39
2019-03-13T02:35:10.918Z,20.38
2019-03-13T02:36:11.248Z,20.36
2019-03-13T02:37:10.902Z,20.41
2019-03-13T02:38:11.753Z,20.39
2019-03-13T02:39:10.965Z,20.39
2019-03-13T02:40:10.889Z,20.35
2019-03-13T02:41:10.864Z,20.41
2019-03-13T02:42:10.848Z,20.38
2019-03-13T02:43:10.829Z,20.42
2019-03-13T02:44:10.832Z,20.33
2019-03-13T02:45:10.833Z,20.36
2019-03-13T02:46:11.252Z,20.29
2019-03-13T02:47:10.786Z,20.33
2019-03-13T02:48:10.789Z,20.36
2019-03-13T02:49:10.762Z,20.35
2019-03-13T02:50:10.775Z,20.33
2019-03-13T02:51:10.753Z,20.35
2019-03-13T02:52:10.728Z,20.29
2019-03-13T02:53:11.239Z,20.35
2019-03-13T02:54:11.239Z,20.51
2019-03-13T02:55:10.721Z,20.32
2019-03-13T02:56:10.697Z,20.29
2019-03-13T02:57:10.678Z,20.29
2019-03-13T02:58:10.662Z,20.42
2019-03-13T02:59:11.241Z,20.32
2019-03-13T03:00:10.658Z,20.50
2019-03-13T03:01:10.649Z,20.43
2019-03-13T03:02:10.621Z,20.32
2019-03-13T03:03:10.610Z,20.35
2019-03-13T03:04:10.621Z,20.42
2019-03-13T03:05:10.599Z,20.31
2019-03-13T03:06:10.577Z,20.35
2019-03-13T03:07:12.863Z,20.51
2019-03-13T03:08:10.557Z,20.42
2019-03-13T03:09:10.539Z,20.31
2019-03-13T03:10:10.532Z,20.31
2019-03-13T03:11:10.525Z,20.42
2019-03-13T03:12:10.521Z,20.38
2019-03-13T03:13:10.503Z,20.31
2019-03-13T03:14:10.495Z,20.33
2019-03-13T03:15:10.483Z,20.35
2019-03-13T03:16:10.468Z,20.33
2019-03-13T03:17:10.754Z,20.32
2019-03-13T03:18:10.447Z,20.42
2019-03-13T03:19:10.434Z,20.33
2019-03-13T03:20:11.240Z,20.43
2019-03-13T03:21:10.553Z,20.36
2019-03-13T03:22:10.425Z,20.33
2019-03-13T03:23:11.240Z,20.32
2019-03-13T03:24:10.377Z,20.31
2019-03-13T03:25:11.255Z,20.31
2019-03-13T03:26:10.357Z,20.32
2019-03-13T03:27:10.357Z,20.42
2019-03-13T03:28:10.419Z,20.32
2019-03-13T03:29:10.323Z,20.31
2019-03-13T03:30:11.260Z,20.33
2019-03-13T03:31:10.301Z,20.28
2019-03-13T03:32:10.309Z,20.31
2019-03-13T03:33:11.245Z,20.29
2019-03-13T03:34:10.292Z,20.33
2019-03-13T03:35:10.266Z,20.33
2019-03-13T03:36:10.748Z,20.35
2019-03-13T03:37:10.258Z,20.35
2019-03-13T03:38:10.743Z,20.43
2019-03-13T03:39:10.213Z,20.28
2019-03-13T03:40:10.215Z,20.29
2019-03-13T03:41:10.192Z,20.29
2019-03-13T03:42:10.198Z,20.32
2019-03-13T03:43:10.238Z,20.26
2019-03-13T03:44:10.163Z,20.32
2019-03-13T03:45:10.185Z,20.35
2019-03-13T03:46:10.140Z,20.41
2019-03-13T03:47:10.132Z,20.31
2019-03-13T03:48:10.111Z,20.31
2019-03-13T03:49:10.099Z,20.28
2019-03-13T03:50:10.102Z,20.31
2019-03-13T03:51:10.082Z,20.35
2019-03-13T03:52:10.088Z,20.29
2019-03-13T03:53:10.062Z,20.41
2019-03-13T03:54:10.084Z,20.36
2019-03-13T03:55:10.758Z,20.36
2019-03-13T03:56:10.029Z,20.42
2019-03-13T03:57:10.741Z,20.32
2019-03-13T03:58:10.016Z,20.33
2019-03-13T03:59:09.991Z,20.35
2019-03-13T04:00:09.992Z,20.43
2019-03-13T04:01:10.777Z,20.36
2019-03-13T04:02:10.743Z,20.32
2019-03-13T04:03:10.253Z,20.31
2019-03-13T04:04:09.940Z,20.33
2019-03-13T04:05:09.957Z,20.33
2019-03-13T04:06:09.912Z,20.35
2019-03-13T04:07:09.903Z,20.29
2019-03-13T04:08:09.912Z,20.48
2019-03-13T04:09:09.882Z,20.38
2019-03-13T04:10:10.774Z,20.28
2019-03-13T04:11:09.859Z,20.31
2019-03-13T04:12:09.857Z,20.31
2019-03-13T04:13:10.262Z,20.33
2019-03-13T04:14:09.820Z,20.31
2019-03-13T04:15:09.809Z,20.36
2019-03-13T04:16:10.762Z,20.39
2019-03-13T04:17:09.794Z,20.33
2019-03-13T04:18:09.791Z,20.38
2019-03-13T04:19:09.764Z,20.33
2019-03-13T04:20:09.757Z,20.36
2019-03-13T04:21:09.758Z,20.36
2019-03-13T04:22:09.739Z,20.35
2019-03-13T04:23:09.783Z,20.38
2019-03-13T04:24:09.710Z,20.41
2019-03-13T04:25:09.700Z,20.38
2019-03-13T04:26:12.710Z,20.38
2019-03-13T04:27:09.698Z,20.38
2019-03-13T04:28:09.682Z,20.39
2019-03-13T04:29:09.659Z,20.38
2019-03-13T04:30:09.646Z,20.47
2019-03-13T04:31:09.648Z,20.39
2019-03-13T04:32:09.625Z,20.38
2019-03-13T04:33:09.626Z,20.43
2019-03-13T04:34:09.600Z,20.48
2019-03-13T04:35:10.244Z,20.47
2019-03-13T04:36:09.591Z,20.51
2019-03-13T04:37:09.567Z,20.42
2019-03-13T04:38:09.583Z,20.42
2019-03-13T04:39:09.548Z,20.50
2019-03-13T04:40:09.539Z,20.52
2019-03-13T04:41:10.266Z,20.51
2019-03-13T04:42:10.242Z,20.51
2019-03-13T04:43:09.500Z,20.43
2019-03-13T04:44:09.766Z,20.50
2019-03-13T04:45:09.498Z,20.52
2019-03-13T04:46:09.480Z,20.54
2019-03-13T04:47:10.243Z,20.55
2019-03-13T04:48:09.446Z,20.50
2019-03-13T04:49:09.758Z,20.48
2019-03-13T04:50:09.423Z,20.47
2019-03-13T04:51:10.266Z,20.50
2019-03-13T04:52:10.244Z,20.50
2019-03-13T04:53:09.391Z,20.54
2019-03-13T04:54:09.388Z,20.54
2019-03-13T04:55:09.367Z,20.43
2019-03-13T04:56:09.385Z,20.48
2019-03-13T04:57:10.248Z,20.51
2019-03-13T04:58:09.331Z,20.42
2019-03-13T04:59:09.332Z,20.54
2019-03-13T05:00:09.310Z,20.48
2019-03-13T05:01:09.321Z,20.43
2019-03-13T05:02:09.294Z,20.47
2019-03-13T05:03:09.279Z,20.48
2019-03-13T05:04:09.285Z,20.52
2019-03-13T05:05:09.258Z,20.43
2019-03-13T05:06:09.753Z,20.50
2019-03-13T05:07:09.238Z,20.54
2019-03-13T05:08:09.744Z,20.42
2019-03-13T05:09:09.264Z,20.42
2019-03-13T05:10:09.203Z,20.42
2019-03-13T05:11:09.760Z,20.51
2019-03-13T05:12:09.179Z,20.51
2019-03-13T05:13:09.387Z,20.47
2019-03-13T05:14:09.261Z,20.47
2019-03-13T05:15:09.142Z,20.50
2019-03-13T05:16:09.149Z,20.54
2019-03-13T05:17:09.750Z,20.47
2019-03-13T05:18:09.111Z,20.42
2019-03-13T05:19:09.103Z,20.51
2019-03-13T05:20:09.104Z,20.47
2019-03-13T05:21:09.092Z,20.41
2019-03-13T05:22:09.068Z,20.48
2019-03-13T05:23:09.750Z,20.41
2019-03-13T05:24:09.051Z,20.43
2019-03-13T05:25:09.055Z,20.42
2019-03-13T05:26:09.106Z,20.43
2019-03-13T05:27:09.013Z,20.41
2019-03-13T05:28:09.002Z,20.36
2019-03-13T05:29:08.995Z,20.38
2019-03-13T05:30:08.997Z,20.42
2019-03-13T05:31:08.969Z,20.36
2019-03-13T05:32:08.970Z,20.38
2019-03-13T05:33:08.948Z,20.43
2019-03-13T05:34:08.935Z,20.42
2019-03-13T05:35:08.950Z,20.38
2019-03-13T05:36:08.923Z,20.38
2019-03-13T05:37:08.917Z,20.38
2019-03-13T05:38:08.906Z,20.38
2019-03-13T05:39:08.884Z,20.36
2019-03-13T05:40:08.880Z,20.38
2019-03-13T05:41:08.859Z,20.33
2019-03-13T05:42:08.953Z,20.36
2019-03-13T05:43:08.849Z,20.33
2019-03-13T05:44:08.825Z,20.36
2019-03-13T05:45:08.825Z,20.48
2019-03-13T05:46:08.825Z,20.33
2019-03-13T05:47:08.812Z,20.33
2019-03-13T05:48:08.803Z,20.32
2019-03-13T05:49:08.769Z,20.33
2019-03-13T05:50:08.768Z,20.38
2019-03-13T05:51:09.251Z,20.28
2019-03-13T05:52:09.263Z,20.39
2019-03-13T05:53:08.723Z,20.36
2019-03-13T05:54:09.252Z,20.36
2019-03-13T05:55:08.710Z,20.31
2019-03-13T05:56:08.705Z,20.39
2019-03-13T05:57:08.697Z,20.35
2019-03-13T05:58:08.673Z,20.47
2019-03-13T05:59:08.661Z,20.31
2019-03-13T06:00:08.649Z,20.38
2019-03-13T06:01:08.653Z,20.48
2019-03-13T06:02:08.637Z,20.35
2019-03-13T06:03:08.616Z,20.33
2019-03-13T06:04:08.606Z,20.29
2019-03-13T06:05:08.595Z,20.33
2019-03-13T06:06:08.768Z,20.38
2019-03-13T06:07:08.585Z,20.32
2019-03-13T06:08:08.560Z,20.33
2019-03-13T06:09:08.547Z,20.38
2019-03-13T06:10:08.540Z,20.39
2019-03-13T06:11:08.543Z,20.36
2019-03-13T06:12:08.531Z,20.41
2019-03-13T06:13:08.504Z,20.36
2019-03-13T06:14:08.500Z,20.38
2019-03-13T06:15:08.484Z,20.36
2019-03-13T06:16:08.797Z,20.42
2019-03-13T06:17:08.468Z,20.47
2019-03-13T06:18:09.808Z,20.39
2019-03-13T06:19:08.439Z,20.42
2019-03-13T06:20:10.600Z,20.41
2019-03-13T06:21:08.769Z,20.35
2019-03-13T06:22:08.404Z,20.41
2019-03-13T06:23:09.268Z,20.42
2019-03-13T06:24:08.388Z,20.36
2019-03-13T06:25:08.398Z,20.42
2019-03-13T06:26:08.386Z,20.41
2019-03-13T06:27:09.254Z,20.41
2019-03-13T06:28:09.249Z,20.41
2019-03-13T06:29:08.368Z,20.41
2019-03-13T06:30:08.318Z,20.42
2019-03-13T06:31:08.397Z,20.43
2019-03-13T06:32:08.308Z,20.48
2019-03-13T06:33:08.284Z,20.51
2019-03-13T06:34:11.295Z,20.39
2019-03-13T06:35:09.259Z,20.51
2019-03-13T06:36:08.251Z,20.47
2019-03-13T06:37:08.277Z,20.47
2019-03-13T06:38:08.752Z,20.48
2019-03-13T06:39:08.762Z,20.52
2019-03-13T06:40:08.203Z,20.55
2019-03-13T06:41:08.200Z,20.57
2019-03-13T06:42:08.200Z,20.58
2019-03-13T06:43:08.174Z,20.54
2019-03-13T06:44:08.771Z,20.57
2019-03-13T06:45:08.170Z,20.61
2019-03-13T06:46:08.140Z,20.61
2019-03-13T06:47:08.137Z,20.69
2019-03-13T06:48:08.118Z,20.67
2019-03-13T06:49:08.119Z,20.66
2019-03-13T06:50:08.781Z,20.80
2019-03-13T06:51:08.093Z,20.73
2019-03-13T06:52:08.096Z,20.84
2019-03-13T06:53:08.065Z,20.94
2019-03-13T06:54:08.058Z,20.91
2019-03-13T06:55:08.040Z,20.95
2019-03-13T06:56:08.056Z,20.94
2019-03-13T06:57:08.024Z,21.09
2019-03-13T06:58:08.009Z,21.09
2019-03-13T06:59:08.011Z,21.12
2019-03-13T07:00:07.985Z,21.09
2019-03-13T07:01:08.002Z,21.10
2019-03-13T07:02:07.986Z,21.17
2019-03-13T07:03:07.952Z,21.14
2019-03-13T07:04:07.941Z,21.19
2019-03-13T07:05:07.928Z,21.21
2019-03-13T07:06:07.916Z,21.27
2019-03-13T07:07:07.931Z,21.25
2019-03-13T07:08:08.760Z,21.34
2019-03-13T07:09:07.889Z,21.34
2019-03-13T07:10:08.762Z,21.35
2019-03-13T07:11:07.862Z,21.31
2019-03-13T07:12:08.295Z,21.37
2019-03-13T07:13:07.845Z,21.37
2019-03-13T07:14:07.830Z,21.43
2019-03-13T07:15:07.865Z,21.34
2019-03-13T07:16:07.807Z,21.37
2019-03-13T07:17:08.268Z,21.42
2019-03-13T07:18:08.767Z,21.37
2019-03-13T07:19:07.776Z,21.44
2019-03-13T07:20:07.773Z,21.35
2019-03-13T07:21:07.751Z,21.42
2019-03-13T07:22:07.767Z,21.42
2019-03-13T07:23:07.731Z,21.42
2019-03-13T07:24:07.730Z,21.43
2019-03-13T07:25:07.730Z,21.54
2019-03-13T07:26:07.703Z,21.46
2019-03-13T07:27:07.759Z,21.52
2019-03-13T07:28:07.676Z,21.56
2019-03-13T07:29:12.549Z,21.52
2019-03-13T07:30:07.658Z,21.53
2019-03-13T07:31:07.642Z,21.54
2019-03-13T07:32:07.634Z,21.54
2019-03-13T07:33:07.659Z,21.54
2019-03-13T07:34:07.610Z,21.52
2019-03-13T07:35:07.604Z,21.53
2019-03-13T07:36:08.267Z,21.54
2019-03-13T07:37:07.589Z,21.61
2019-03-13T07:38:07.576Z,21.53
2019-03-13T07:39:07.557Z,21.47
2019-03-13T07:40:07.547Z,21.52
2019-03-13T07:41:07.536Z,21.42
2019-03-13T07:42:07.527Z,21.53
2019-03-13T07:43:07.518Z,21.50
2019-03-13T07:44:07.503Z,21.53
2019-03-13T07:45:07.485Z,21.54
2019-03-13T07:46:07.485Z,21.56
2019-03-13T07:47:07.503Z,21.69
2019-03-13T07:48:07.464Z,21.65
2019-03-13T07:49:07.442Z,21.67
2019-03-13T07:50:07.513Z,21.77
2019-03-13T07:51:07.503Z,21.72
2019-03-13T07:52:07.438Z,21.79
2019-03-13T07:53:07.433Z,21.75
2019-03-13T07:54:07.390Z,21.79
2019-03-13T07:55:07.378Z,21.83
2019-03-13T07:56:07.366Z,21.82
2019-03-13T07:57:07.356Z,21.90
2019-03-13T07:58:07.355Z,21.98
2019-03-13T07:59:08.260Z,21.91
2019-03-13T08:00:07.323Z,22.00
2019-03-13T08:01:07.315Z,21.91
2019-03-13T08:02:07.302Z,21.94
2019-03-13T08:03:07.300Z,22.06
2019-03-13T08:04:08.256Z,22.06
2019-03-13T08:05:07.279Z,21.99
2019-03-13T08:06:07.258Z,22.10
2019-03-13T08:07:07.245Z,22.05
2019-03-13T08:08:07.282Z,22.09
2019-03-13T08:09:07.238Z,22.06
2019-03-13T08:10:07.214Z,22.14
2019-03-13T08:11:07.218Z,22.09
2019-03-13T08:12:07.194Z,22.15
2019-03-13T08:13:07.314Z,22.20
2019-03-13T08:14:07.165Z,22.22
2019-03-13T08:15:07.155Z,22.27
2019-03-13T08:16:07.757Z,22.25
2019-03-13T08:17:07.141Z,22.20
2019-03-13T08:18:07.135Z,22.18
2019-03-13T08:19:07.118Z,22.10
2019-03-13T08:20:07.105Z,22.06
2019-03-13T08:21:07.826Z,22.05
2019-03-13T08:22:07.084Z,22.07
2019-03-13T08:23:07.078Z,21.99
2019-03-13T08:24:07.057Z,21.92
2019-03-13T08:25:08.253Z,21.88
2019-03-13T08:26:07.765Z,21.84
2019-03-13T08:27:07.762Z,22.00
2019-03-13T08:28:07.046Z,21.90
2019-03-13T08:29:07.759Z,21.82
2019-03-13T08:30:06.990Z,21.84
2019-03-13T08:31:07.765Z,21.80
2019-03-13T08:32:06.972Z,21.84
2019-03-13T08:33:06.974Z,21.75
2019-03-13T08:34:06.966Z,21.77
2019-03-13T08:35:06.938Z,21.80
2019-03-13T08:36:06.927Z,21.74
2019-03-13T08:37:06.910Z,21.84
2019-03-13T08:38:06.914Z,21.82
2019-03-13T08:39:07.304Z,21.86
2019-03-13T08:40:06.879Z,21.99
2019-03-13T08:41:07.770Z,21.94
2019-03-13T08:42:06.862Z,21.99
2019-03-13T08:43:06.849Z,21.98
2019-03-13T08:44:07.288Z,22.03
2019-03-13T08:45:06.829Z,22.09
2019-03-13T08:46:06.818Z,22.09
2019-03-13T08:47:06.806Z,22.05
2019-03-13T08:48:06.814Z,22.09
2019-03-13T08:49:07.274Z,22.12
2019-03-13T08:50:07.762Z,22.15
2019-03-13T08:51:06.837Z,22.17
2019-03-13T08:52:07.317Z,22.24
2019-03-13T08:53:06.763Z,22.22
2019-03-13T08:54:06.754Z,22.21
2019-03-13T08:55:06.717Z,22.22
2019-03-13T08:56:07.267Z,22.28
2019-03-13T08:57:06.716Z,22.36
2019-03-13T08:58:06.699Z,22.27
2019-03-13T08:59:06.691Z,22.36
2019-03-13T09:00:06.661Z,22.39
2019-03-13T09:01:07.295Z,22.33
2019-03-13T09:02:07.279Z,22.33
2019-03-13T09:03:06.638Z,22.31
2019-03-13T09:04:06.626Z,22.37
2019-03-13T09:05:06.624Z,22.40
2019-03-13T09:06:06.661Z,22.47
2019-03-13T09:07:07.260Z,22.42
2019-03-13T09:08:06.569Z,22.46
2019-03-13T09:09:06.578Z,22.42
2019-03-13T09:10:07.258Z,22.46
2019-03-13T09:11:06.562Z,22.52
2019-03-13T09:12:07.364Z,22.55
2019-03-13T09:13:07.316Z,22.46
2019-03-13T09:14:06.785Z,22.58
2019-03-13T09:15:06.502Z,22.45
2019-03-13T09:16:07.266Z,22.45
2019-03-13T09:17:06.477Z,22.47
2019-03-13T09:18:06.487Z,22.52
2019-03-13T09:19:06.789Z,22.49
2019-03-13T09:20:06.440Z,22.46
2019-03-13T09:21:06.424Z,22.54
2019-03-13T09:22:07.263Z,22.52
2019-03-13T09:23:06.408Z,22.51
2019-03-13T09:24:06.413Z,22.47
2019-03-13T09:25:12.325Z,22.54
2019-03-13T09:26:06.375Z,22.55
2019-03-13T09:27:06.361Z,22.58
2019-03-13T09:28:06.371Z,22.60
2019-03-13T09:29:07.421Z,22.60
2019-03-13T09:30:07.279Z,22.57
2019-03-13T09:31:06.322Z,22.57
2019-03-13T09:32:07.293Z,22.62
2019-03-13T09:33:07.261Z,22.58
2019-03-13T09:34:06.283Z,22.65
2019-03-13T09:35:06.307Z,22.61
2019-03-13T09:36:06.827Z,22.64
2019-03-13T09:37:06.275Z,22.61
2019-03-13T09:38:06.242Z,22.64
2019-03-13T09:39:06.234Z,22.79
2019-03-13T09:40:06.278Z,22.76
2019-03-13T09:41:06.212Z,22.70
2019-03-13T09:42:06.203Z,22.68
2019-03-13T09:43:06.187Z,22.62
2019-03-13T09:44:06.190Z,22.64
2019-03-13T09:45:06.175Z,22.67
2019-03-13T09:46:06.155Z,22.58
2019-03-13T09:47:06.142Z,22.60
2019-03-13T09:48:06.134Z,22.64
2019-03-13T09:49:06.134Z,22.52
2019-03-13T09:50:06.117Z,22.54
2019-03-13T09:51:06.762Z,22.52
2019-03-13T09:52:06.111Z,22.49
2019-03-13T09:53:06.081Z,22.51
2019-03-13T09:54:06.909Z,22.51
2019-03-13T09:55:06.075Z,22.65
2019-03-13T09:56:06.075Z,22.64
2019-03-13T09:57:06.031Z,22.61
2019-03-13T09:58:06.023Z,22.62
2019-03-13T09:59:06.010Z,22.68
2019-03-13T10:00:06.784Z,22.73
2019-03-13T10:01:05.988Z,22.86
2019-03-13T10:02:06.765Z,22.79
2019-03-13T10:03:05.974Z,22.92
2019-03-13T10:04:05.978Z,23.01
2019-03-13T10:05:06.286Z,22.97
2019-03-13T10:06:05.936Z,23.12
2019-03-13T10:07:05.924Z,23.13
2019-03-13T10:08:05.911Z,23.13
2019-03-13T10:09:05.911Z,23.13
2019-03-13T10:10:05.973Z,23.13
2019-03-13T10:11:05.879Z,23.16
2019-03-13T10:12:05.869Z,23.17
2019-03-13T10:13:05.857Z,23.23
2019-03-13T10:14:05.884Z,23.33
2019-03-13T10:15:05.849Z,23.32
2019-03-13T10:16:05.822Z,23.39
2019-03-13T10:17:11.121Z,23.40
2019-03-13T10:18:05.806Z,23.40
2019-03-13T10:19:05.794Z,23.38
2019-03-13T10:20:06.778Z,23.42
2019-03-13T10:21:06.274Z,23.51
2019-03-13T10:22:05.793Z,23.48
2019-03-13T10:23:05.752Z,23.51
2019-03-13T10:24:05.753Z,23.51
2019-03-13T10:25:05.729Z,23.48
2019-03-13T10:26:05.725Z,23.60
2019-03-13T10:27:06.267Z,23.54
2019-03-13T10:28:05.696Z,23.50
2019-03-13T10:29:05.699Z,23.50
2019-03-13T10:30:05.677Z,23.55
2019-03-13T10:31:05.676Z,23.53
2019-03-13T10:32:05.680Z,23.51
2019-03-13T10:33:06.272Z,23.50
2019-03-13T10:34:05.633Z,23.50
2019-03-13T10:35:05.622Z,23.50
2019-03-13T10:36:05.646Z,23.43
2019-03-13T10:37:06.270Z,23.46
2019-03-13T10:38:13.850Z,23.47
2019-03-13T10:39:05.588Z,23.40
2019-03-13T10:40:05.578Z,23.40
2019-03-13T10:41:05.561Z,23.36
2019-03-13T10:42:05.551Z,23.42
2019-03-13T10:43:05.549Z,23.39
2019-03-13T10:44:05.541Z,23.40
2019-03-13T10:45:06.283Z,23.35
2019-03-13T10:46:05.778Z,23.38
2019-03-13T10:47:05.512Z,23.36
2019-03-13T10:48:06.290Z,23.36
2019-03-13T10:49:05.469Z,23.36
2019-03-13T10:50:05.471Z,23.35
2019-03-13T10:51:06.285Z,23.35
2019-03-13T10:52:06.265Z,23.33
2019-03-13T10:53:06.265Z,23.20
2019-03-13T10:54:05.462Z,23.23
2019-03-13T10:55:06.280Z,23.22
2019-03-13T10:56:05.441Z,23.25
2019-03-13T10:57:05.412Z,23.19
2019-03-13T10:58:05.371Z,23.15
2019-03-13T10:59:06.270Z,23.20
2019-03-13T11:00:05.358Z,23.20
2019-03-13T11:01:06.289Z,23.17
2019-03-13T11:02:05.323Z,23.17
2019-03-13T11:03:05.322Z,23.16
2019-03-13T11:04:06.266Z,23.15
2019-03-13T11:05:05.330Z,23.07
2019-03-13T11:06:05.871Z,23.04
2019-03-13T11:07:06.266Z,23.12
2019-03-13T11:08:05.770Z,23.07
2019-03-13T11:09:05.766Z,23.19
2019-03-13T11:10:05.250Z,23.12
2019-03-13T11:11:05.243Z,23.01
2019-03-13T11:12:05.299Z,23.02
2019-03-13T11:13:05.202Z,23.10
2019-03-13T11:14:15.578Z,23.04
2019-03-13T11:15:05.188Z,22.97
2019-03-13T11:16:05.187Z,23.02
2019-03-13T11:17:05.169Z,23.01
2019-03-13T11:18:05.156Z,22.98
2019-03-13T11:19:05.767Z,23.04
2019-03-13T11:20:05.129Z,22.91
2019-03-13T11:21:05.118Z,22.95
2019-03-13T11:22:05.113Z,22.88
2019-03-13T11:23:05.113Z,22.95
2019-03-13T11:24:05.772Z,22.95
2019-03-13T11:25:05.076Z,22.85
2019-03-13T11:26:05.065Z,22.88
2019-03-13T11:27:05.283Z,22.83
2019-03-13T11:28:05.060Z,22.80
2019-03-13T11:29:05.767Z,22.82
2019-03-13T11:30:05.051Z,22.82
2019-03-13T11:31:05.014Z,22.85
2019-03-13T11:32:05.307Z,22.85
2019-03-13T11:33:04.995Z,22.77
2019-03-13T11:34:04.983Z,22.80
2019-03-13T11:35:04.968Z,22.73
2019-03-13T11:36:04.973Z,22.77
2019-03-13T11:37:05.279Z,22.72
2019-03-13T11:38:04.970Z,22.75
2019-03-13T11:39:05.787Z,22.72
2019-03-13T11:40:04.923Z,22.73
2019-03-13T11:41:04.930Z,22.68
2019-03-13T11:42:04.902Z,22.72
2019-03-13T11:43:05.769Z,22.67
2019-03-13T11:44:04.875Z,22.62
2019-03-13T11:45:04.869Z,22.64
2019-03-13T11:46:04.876Z,22.77
2019-03-13T11:47:05.297Z,22.67
2019-03-13T11:48:05.782Z,22.70
2019-03-13T11:49:04.818Z,22.75
2019-03-13T11:50:05.800Z,22.65
2019-03-13T11:51:05.782Z,22.65
2019-03-13T11:52:04.793Z,22.76
2019-03-13T11:53:05.772Z,22.62
2019-03-13T11:54:05.308Z,22.64
2019-03-13T11:55:04.770Z,22.60
2019-03-13T11:56:05.280Z,22.61
2019-03-13T11:57:04.742Z,22.58
2019-03-13T11:58:04.724Z,22.70
2019-03-13T11:59:04.710Z,22.60
2019-03-13T12:00:05.272Z,22.58
2019-03-13T12:01:05.289Z,22.60
2019-03-13T12:02:04.757Z,22.73
2019-03-13T12:03:04.680Z,22.67
2019-03-13T12:04:05.269Z,22.67
2019-03-13T12:05:04.646Z,22.62
2019-03-13T12:06:04.665Z,22.68
2019-03-13T12:07:05.270Z,22.62
2019-03-13T12:08:04.674Z,22.68
2019-03-13T12:09:05.278Z,22.68
2019-03-13T12:10:04.593Z,22.68
2019-03-13T12:11:04.582Z,22.64
2019-03-13T12:12:04.585Z,22.79
2019-03-13T12:13:04.568Z,22.65
2019-03-13T12:14:04.574Z,22.65
2019-03-13T12:15:05.288Z,22.68
2019-03-13T12:16:05.274Z,22.72
2019-03-13T12:17:04.516Z,22.72
2019-03-13T12:18:04.531Z,22.79
2019-03-13T12:19:05.312Z,22.75
2019-03-13T12:20:04.483Z,22.76
2019-03-13T12:21:04.482Z,22.77
2019-03-13T12:22:05.272Z,22.82
2019-03-13T12:23:04.470Z,22.79
2019-03-13T12:24:04.445Z,22.79
2019-03-13T12:25:04.433Z,22.82
2019-03-13T12:26:05.285Z,22.83
2019-03-13T12:27:05.284Z,22.77
2019-03-13T12:28:04.791Z,22.82
2019-03-13T12:29:05.291Z,22.79
2019-03-13T12:30:05.280Z,22.83
2019-03-13T12:31:04.395Z,22.82
2019-03-13T12:32:05.316Z,22.76
2019-03-13T12:33:04.786Z,22.82
2019-03-13T12:34:04.348Z,22.88
2019-03-13T12:35:04.323Z,22.82
2019-03-13T12:36:05.314Z,22.80
2019-03-13T12:37:05.292Z,22.83
2019-03-13T12:38:04.327Z,22.79
2019-03-13T12:39:04.319Z,22.86
2019-03-13T12:40:04.315Z,22.82
2019-03-13T12:41:04.258Z,22.83
2019-03-13T12:42:04.251Z,22.79
2019-03-13T12:43:04.802Z,22.79
2019-03-13T12:44:04.230Z,22.80
2019-03-13T12:45:04.863Z,22.79
2019-03-13T12:46:04.776Z,22.86
2019-03-13T12:47:04.211Z,22.85
2019-03-13T12:48:16.188Z,22.85
2019-03-13T12:49:04.177Z,22.82
2019-03-13T12:50:04.161Z,22.83
2019-03-13T12:51:04.151Z,22.80
2019-03-13T12:52:04.250Z,22.85